createdAt,value
2022-09-02T00:01:24.847Z,3.42
2022-09-02T00:03:53.296Z,3.90
2022-09-02T00:06:20.602Z,4.32
2022-09-02T00:08:47.922Z,4.30
2022-09-02T00:11:16.765Z,4.00
2022-09-02T00:13:44.771Z,3.65
2022-09-02T00:16:12.644Z,4.35
2022-09-02T00:18:44.871Z,3.28
2022-09-02T00:21:14.305Z,3.65
2022-09-02T00:23:42.309Z,3.90
2022-09-02T00:26:09.720Z,3.88
2022-09-02T00:28:37.034Z,4.07
2022-09-02T00:31:04.522Z,4.38
2022-09-02T00:33:32.186Z,3.92
2022-09-02T00:36:01.049Z,3.58
2022-09-02T00:38:28.985Z,3.92
2022-09-02T00:40:56.736Z,4.13
2022-09-02T00:43:25.691Z,4.40
2022-09-02T00:45:54.822Z,4.07
2022-09-02T00:48:22.285Z,4.25
2022-09-02T00:50:51.148Z,4.65
2022-09-02T00:53:19.032Z,4.68
2022-09-02T00:55:47.925Z,3.90
2022-09-02T00:58:23.091Z,3.75
2022-09-02T01:00:52.595Z,4.00
2022-09-02T01:03:21.828Z,4.30
2022-09-02T01:05:50.301Z,4.00
2022-09-02T01:08:19.878Z,4.90
2022-09-02T01:10:48.067Z,4.43
2022-09-02T01:13:17.026Z,4.13
2022-09-02T01:15:46.044Z,4.30
2022-09-02T01:18:19.273Z,4.15
2022-09-02T01:20:46.938Z,4.13
2022-09-02T01:23:16.312Z,4.88
2022-09-02T01:25:44.369Z,3.92
2022-09-02T01:28:13.460Z,3.70
2022-09-02T01:30:42.630Z,4.40
2022-09-02T01:33:10.898Z,4.60
2022-09-02T01:35:38.856Z,4.18
2022-09-02T01:38:06.699Z,4.32
2022-09-02T01:40:34.584Z,4.53
2022-09-02T01:43:12.216Z,4.82
2022-09-02T01:45:40.642Z,4.07
2022-09-02T01:48:08.750Z,4.50
2022-09-02T01:50:39.078Z,4.28
2022-09-02T01:55:36.193Z,4.80
2022-09-02T01:58:03.617Z,4.47
2022-09-02T02:00:31.460Z,4.25
2022-09-02T02:02:58.765Z,4.65
2022-09-02T02:05:26.185Z,4.07
2022-09-02T02:07:54.069Z,4.45
2022-09-02T02:10:22.061Z,4.30
2022-09-02T02:12:49.318Z,4.63
2022-09-02T02:15:18.289Z,4.70
2022-09-02T02:17:45.932Z,4.72
2022-09-02T02:20:17.055Z,5.38
2022-09-02T02:22:44.920Z,4.18
2022-09-02T02:25:13.807Z,4.03
2022-09-02T02:27:41.577Z,4.53
2022-09-02T02:30:11.454Z,4.57
2022-09-02T02:32:39.077Z,4.30
2022-09-02T02:35:06.908Z,4.45
2022-09-02T02:37:34.517Z,5.35
2022-09-02T02:40:01.783Z,4.90
2022-09-02T02:42:29.095Z,4.43
2022-09-02T02:44:56.386Z,4.30
2022-09-02T02:47:23.958Z,4.85
2022-09-02T02:49:51.296Z,4.80
2022-09-02T02:52:18.606Z,4.88
2022-09-02T02:54:46.164Z,4.45
2022-09-02T02:57:13.665Z,5.05
2022-09-02T02:59:40.943Z,5.38
2022-09-02T03:02:08.633Z,5.20
2022-09-02T03:04:36.032Z,5.25
2022-09-02T03:07:03.389Z,5.43
2022-09-02T03:09:30.787Z,4.35
2022-09-02T03:11:58.350Z,5.25
2022-09-02T03:14:26.195Z,5.45
2022-09-02T03:16:53.601Z,5.35
2022-09-02T03:19:20.884Z,4.78
2022-09-02T03:21:48.220Z,5.47
2022-09-02T03:24:15.602Z,5.22
2022-09-02T03:26:43.921Z,4.93
2022-09-02T03:29:11.264Z,5.50
2022-09-02T03:31:38.676Z,5.20
2022-09-02T03:34:07.418Z,5.57
2022-09-02T03:36:39.218Z,6.00
2022-09-02T03:39:10.014Z,6.53
2022-09-02T03:41:37.945Z,5.75
2022-09-02T03:44:05.889Z,5.65
2022-09-02T03:46:33.536Z,5.40
2022-09-02T03:49:00.838Z,5.70
2022-09-02T03:51:28.658Z,5.50
2022-09-02T03:53:55.953Z,5.32
2022-09-02T03:56:24.499Z,4.70
2022-09-02T03:58:52.536Z,4.85
2022-09-02T04:01:21.682Z,4.47
2022-09-02T04:03:49.346Z,4.55
2022-09-02T04:06:17.889Z,4.60
2022-09-02T04:08:45.152Z,4.38
2022-09-02T04:11:14.774Z,4.70
2022-09-02T04:13:42.093Z,4.30
2022-09-02T04:16:13.932Z,4.53
2022-09-02T04:18:41.408Z,4.07
2022-09-02T04:21:09.001Z,4.57
2022-09-02T04:23:36.737Z,4.10
2022-09-02T04:26:05.949Z,4.15
2022-09-02T04:28:33.307Z,3.78
2022-09-02T04:31:00.639Z,4.10
2022-09-02T04:33:27.939Z,3.78
2022-09-02T04:35:55.267Z,4.03
2022-09-02T04:38:23.069Z,4.15
2022-09-02T04:40:50.506Z,3.75
2022-09-02T04:43:18.238Z,3.50
2022-09-02T04:45:46.425Z,4.18
2022-09-02T04:48:14.113Z,3.75
2022-09-02T04:50:42.012Z,4.00
2022-09-02T04:53:09.565Z,4.53
2022-09-02T04:55:38.941Z,3.92
2022-09-02T04:58:06.218Z,4.13
2022-09-02T05:00:33.489Z,3.80
2022-09-02T05:03:00.883Z,4.28
2022-09-02T05:05:28.273Z,4.07
2022-09-02T05:07:56.533Z,3.75
2022-09-02T05:10:24.013Z,4.15
2022-09-02T05:12:52.331Z,3.58
2022-09-02T05:15:19.666Z,3.70
2022-09-02T05:17:46.945Z,3.40
2022-09-02T05:20:14.269Z,4.05
2022-09-02T05:22:41.753Z,3.10
2022-09-02T05:25:09.651Z,3.13
2022-09-02T05:27:37.420Z,3.28
2022-09-02T05:30:05.311Z,3.38
2022-09-02T05:32:37.028Z,3.03
2022-09-02T05:35:05.372Z,3.97
2022-09-02T05:37:32.682Z,3.15
2022-09-02T05:39:59.945Z,3.25
2022-09-02T05:42:29.813Z,3.20
2022-09-02T05:44:57.195Z,3.30
2022-09-02T05:47:25.471Z,3.22
2022-09-02T05:49:52.815Z,3.72
2022-09-02T05:52:20.936Z,3.40
2022-09-02T05:54:49.368Z,3.70
2022-09-02T05:57:17.624Z,3.35
2022-09-02T05:59:45.012Z,3.70
2022-09-02T06:02:13.083Z,3.42
2022-09-02T06:04:41.413Z,3.40
2022-09-02T06:07:08.768Z,3.13
2022-09-02T06:09:39.022Z,3.17
2022-09-02T06:12:06.325Z,3.42
2022-09-02T06:14:33.643Z,3.50
2022-09-02T06:17:01.062Z,3.05
2022-09-02T06:19:30.432Z,2.97
2022-09-02T06:21:57.985Z,2.60
2022-09-02T06:24:25.778Z,3.00
2022-09-02T06:26:55.541Z,3.05
2022-09-02T06:29:23.769Z,2.30
2022-09-02T06:31:51.519Z,2.47
2022-09-02T06:34:20.973Z,2.20
2022-09-02T06:36:49.112Z,1.70
2022-09-02T06:39:18.542Z,1.83
2022-09-02T06:41:49.074Z,2.08
2022-09-02T06:44:17.170Z,1.80
2022-09-02T06:46:47.386Z,1.60
2022-09-02T06:49:16.382Z,1.55
2022-09-02T06:51:45.361Z,2.53
2022-09-02T06:54:15.865Z,1.70
2022-09-02T06:56:49.091Z,1.67
2022-09-02T06:59:17.130Z,2.42
2022-09-02T07:01:44.862Z,1.63
2022-09-02T07:04:31.190Z,1.75
2022-09-02T07:06:58.742Z,2.22
2022-09-02T07:09:33.419Z,2.10
2022-09-02T07:12:04.712Z,2.45
2022-09-02T07:14:33.007Z,2.40
2022-09-02T07:17:00.479Z,1.77
2022-09-02T07:19:28.109Z,1.67
2022-09-02T07:21:55.535Z,1.90
2022-09-02T07:24:23.593Z,1.80
2022-09-02T07:26:55.446Z,2.10
2022-09-02T07:29:23.705Z,2.15
2022-09-02T07:31:50.992Z,1.55
2022-09-02T07:34:18.823Z,1.50
2022-09-02T07:36:46.608Z,1.60
2022-09-02T07:39:14.959Z,1.92
2022-09-02T07:41:42.840Z,1.85
2022-09-02T07:44:10.080Z,1.52
2022-09-02T07:46:37.740Z,1.38
2022-09-02T07:49:09.368Z,1.70
2022-09-02T07:51:38.674Z,1.20
2022-09-02T07:54:06.387Z,1.95
2022-09-02T07:56:33.725Z,1.73
2022-09-02T07:59:01.181Z,1.80
2022-09-02T08:01:28.560Z,1.83
2022-09-02T08:03:55.973Z,1.90
2022-09-02T08:06:33.658Z,2.03
2022-09-02T08:09:02.085Z,2.00
2022-09-02T08:11:29.324Z,1.77
2022-09-02T08:13:56.611Z,1.90
2022-09-02T08:16:24.870Z,2.03
2022-09-02T08:18:52.382Z,1.95
2022-09-02T08:21:19.705Z,2.00
2022-09-02T08:23:49.256Z,1.70
2022-09-02T08:26:17.316Z,1.70
2022-09-02T08:28:44.636Z,1.50
2022-09-02T08:31:11.921Z,1.75
2022-09-02T08:33:39.370Z,1.60
2022-09-02T08:36:09.136Z,1.40
2022-09-02T08:38:36.958Z,1.38
2022-09-02T08:41:12.500Z,1.70
2022-09-02T08:43:44.915Z,1.40
2022-09-02T08:46:16.506Z,1.60
2022-09-02T08:48:47.659Z,1.90
2022-09-02T08:51:19.147Z,1.58
2022-09-02T08:53:52.553Z,1.85
2022-09-02T08:56:20.574Z,2.15
2022-09-02T08:58:52.888Z,1.83
2022-09-02T09:01:33.325Z,1.58
2022-09-02T09:04:03.789Z,1.77
2022-09-02T09:06:34.402Z,2.22
2022-09-02T09:09:09.141Z,1.73
2022-09-02T09:11:42.821Z,1.65
2022-09-02T09:14:17.158Z,1.73
2022-09-02T09:16:47.489Z,1.58
2022-09-02T09:19:16.478Z,1.83
2022-09-02T09:21:44.417Z,2.50
2022-09-02T09:24:35.029Z,1.85
2022-09-02T09:27:03.378Z,2.00
2022-09-02T09:29:36.299Z,2.20
2022-09-02T09:32:04.137Z,2.28
2022-09-02T09:34:51.806Z,2.35
2022-09-02T09:37:48.914Z,1.95
2022-09-02T09:40:38.380Z,1.70
2022-09-02T09:43:07.050Z,1.90
2022-09-02T09:45:50.012Z,1.90
2022-09-02T09:48:19.468Z,2.00
2022-09-02T09:50:47.968Z,2.45
2022-09-02T09:53:16.236Z,2.20
2022-09-02T09:55:57.992Z,2.45
2022-09-02T09:58:46.306Z,1.60
2022-09-02T10:01:20.119Z,1.90
2022-09-02T10:03:55.710Z,2.10
2022-09-02T10:06:25.323Z,2.65
2022-09-02T10:08:57.433Z,1.95
2022-09-02T10:11:28.722Z,2.38
2022-09-02T10:14:03.272Z,2.20
2022-09-02T10:16:31.381Z,2.00
2022-09-02T10:19:03.741Z,1.77
2022-09-02T10:21:36.868Z,2.10
2022-09-02T10:24:22.941Z,2.08
2022-09-02T10:26:53.113Z,2.30
2022-09-02T10:29:20.530Z,1.77
2022-09-02T10:31:54.776Z,2.22
2022-09-02T10:34:22.135Z,2.78
2022-09-02T10:37:01.602Z,2.85
2022-09-02T10:39:37.806Z,2.05
2022-09-02T10:42:11.189Z,2.90
2022-09-02T10:44:49.579Z,2.63
2022-09-02T10:47:30.106Z,2.70
2022-09-02T10:50:18.274Z,2.95
2022-09-02T10:53:05.972Z,3.40
2022-09-02T10:55:42.198Z,3.40
2022-09-02T10:58:24.874Z,3.30
2022-09-02T11:03:20.829Z,3.55
2022-09-02T11:05:51.802Z,3.05
2022-09-02T11:08:19.083Z,3.47
2022-09-02T11:11:01.175Z,4.85
2022-09-02T11:13:38.576Z,3.38
2022-09-02T11:16:15.246Z,3.10
2022-09-02T11:18:48.130Z,4.50
2022-09-02T11:21:25.990Z,4.13
2022-09-02T11:24:16.943Z,4.18
2022-09-02T11:26:54.017Z,4.53
2022-09-02T11:29:22.887Z,4.75
2022-09-02T11:31:58.667Z,3.95
2022-09-02T11:34:35.010Z,3.53
2022-09-02T11:37:23.158Z,3.42
2022-09-02T11:40:06.432Z,3.28
2022-09-02T11:42:49.922Z,3.67
2022-09-02T11:45:36.182Z,3.22
2022-09-02T11:48:29.464Z,2.90
2022-09-02T11:50:56.745Z,2.97
2022-09-02T11:53:25.926Z,3.88
2022-09-02T11:56:16.041Z,4.27
2022-09-02T11:58:45.038Z,4.30
2022-09-02T12:01:33.390Z,4.18
2022-09-02T12:07:08.690Z,4.38
2022-09-02T12:09:50.087Z,3.53
2022-09-02T12:12:36.317Z,3.65
2022-09-02T12:15:07.317Z,2.83
2022-09-02T12:17:38.011Z,3.08
2022-09-02T12:20:07.992Z,2.88
2022-09-02T12:22:39.532Z,2.60
2022-09-02T12:25:28.306Z,3.60
2022-09-02T12:28:19.261Z,3.45
2022-09-02T12:31:15.641Z,3.17
2022-09-02T12:33:44.884Z,3.65
2022-09-02T12:36:44.584Z,3.40
2022-09-02T12:39:24.855Z,2.90
2022-09-02T12:42:07.262Z,3.60
2022-09-02T12:44:53.491Z,3.58
2022-09-02T12:47:23.978Z,2.90
2022-09-02T12:49:54.358Z,3.30
2022-09-02T12:52:37.137Z,3.40
2022-09-02T12:55:17.111Z,3.30
2022-09-02T12:57:51.233Z,3.30
2022-09-02T13:00:27.992Z,2.88
2022-09-02T13:03:07.469Z,3.47
2022-09-02T13:05:53.469Z,3.45
2022-09-02T13:08:47.519Z,3.72
2022-09-02T13:11:33.749Z,3.20
2022-09-02T13:14:10.250Z,3.65
2022-09-02T13:16:37.488Z,3.97
2022-09-02T13:19:12.257Z,3.58
2022-09-02T13:21:57.649Z,4.20
2022-09-02T13:24:27.994Z,4.07
2022-09-02T13:27:11.901Z,4.15
2022-09-02T13:29:58.106Z,4.35
2022-09-02T13:32:26.950Z,4.47
2022-09-02T13:34:56.051Z,4.88
2022-09-02T13:37:31.002Z,5.13
2022-09-02T13:39:58.729Z,4.85
2022-09-02T13:42:27.605Z,4.40
2022-09-02T13:45:20.244Z,4.97
2022-09-02T13:47:49.194Z,4.95
2022-09-02T13:50:18.467Z,6.13
2022-09-02T13:53:45.024Z,5.70
2022-09-02T13:55:35.599Z,5.88
2022-09-02T13:58:05.150Z,6.18
2022-09-02T14:00:35.390Z,6.55
2022-09-02T14:03:14.592Z,7.20
2022-09-02T14:05:47.392Z,7.47
2022-09-02T14:08:16.360Z,7.88
2022-09-02T14:10:44.100Z,8.52
2022-09-02T14:13:11.924Z,7.35
2022-09-02T14:15:39.299Z,6.80
2022-09-02T14:18:08.308Z,8.00
2022-09-02T14:20:36.161Z,7.07
2022-09-02T14:23:03.675Z,7.53
2022-09-02T14:25:34.816Z,7.97
2022-09-02T14:28:02.278Z,7.93
2022-09-02T14:30:40.214Z,7.65
2022-09-02T14:33:23.001Z,7.93
2022-09-02T14:38:23.805Z,8.25
2022-09-02T14:40:59.477Z,8.57
2022-09-02T14:43:26.795Z,8.02
2022-09-02T14:46:04.735Z,8.18
2022-09-02T14:48:33.933Z,9.15
2022-09-02T14:51:03.853Z,8.95
2022-09-02T14:53:32.042Z,8.73
2022-09-02T14:55:59.783Z,7.90
2022-09-02T14:58:28.510Z,8.50
2022-09-02T15:00:57.434Z,8.95
2022-09-02T15:03:24.923Z,7.78
2022-09-02T15:05:53.728Z,7.70
2022-09-02T15:08:21.813Z,8.63
2022-09-02T15:10:49.569Z,9.57
2022-09-02T15:13:25.857Z,9.38
2022-09-02T15:15:55.421Z,10.43
2022-09-02T15:18:23.265Z,10.57
2022-09-02T15:20:50.600Z,10.40
2022-09-02T15:23:18.151Z,11.45
2022-09-02T15:25:45.655Z,10.50
2022-09-02T15:28:13.634Z,10.13
2022-09-02T15:30:41.212Z,9.27
2022-09-02T15:33:10.360Z,9.52
2022-09-02T15:35:46.643Z,8.20
2022-09-02T15:38:14.036Z,9.00
2022-09-02T15:40:41.376Z,10.27
2022-09-02T15:43:08.683Z,11.43
2022-09-02T15:45:37.876Z,12.48
2022-09-02T15:48:07.009Z,11.77
2022-09-02T15:50:34.397Z,10.68
2022-09-02T15:53:01.721Z,12.07
2022-09-02T15:55:32.336Z,10.95
2022-09-02T15:57:59.807Z,13.32
2022-09-02T16:00:27.661Z,13.65
2022-09-02T16:02:57.126Z,15.65
2022-09-02T16:05:24.536Z,16.55
2022-09-02T16:07:55.035Z,14.48
2022-09-02T16:10:22.360Z,14.75
2022-09-02T16:12:49.650Z,16.08
2022-09-02T16:15:16.895Z,13.35
2022-09-02T16:17:44.558Z,15.70
2022-09-02T16:20:12.090Z,16.48
2022-09-02T16:22:39.335Z,17.73
2022-09-02T16:25:06.918Z,15.45
2022-09-02T16:27:52.415Z,14.45
2022-09-02T16:30:20.738Z,14.98
2022-09-02T16:32:50.582Z,14.70
2022-09-02T16:35:17.963Z,16.13
2022-09-02T16:37:45.319Z,15.52
2022-09-02T16:40:21.030Z,15.68
2022-09-02T16:42:48.478Z,14.27
2022-09-02T16:45:15.865Z,15.38
2022-09-02T16:47:43.099Z,14.73
2022-09-02T16:50:12.504Z,14.48
2022-09-02T16:52:41.037Z,13.05
2022-09-02T16:55:08.491Z,14.77
2022-09-02T16:57:35.705Z,14.20
2022-09-02T17:00:03.042Z,13.32
2022-09-02T17:02:30.467Z,13.60
2022-09-02T17:04:57.820Z,13.85
2022-09-02T17:07:25.264Z,14.65
2022-09-02T17:09:52.504Z,14.13
2022-09-02T17:12:19.821Z,13.70
2022-09-02T17:14:47.320Z,13.48
2022-09-02T17:17:17.080Z,13.93
2022-09-02T17:19:44.366Z,14.38
2022-09-02T17:22:11.686Z,13.80
2022-09-02T17:24:41.936Z,13.80
2022-09-02T17:27:09.284Z,13.55
2022-09-02T17:29:51.937Z,14.73
2022-09-02T17:32:19.657Z,13.02
2022-09-02T17:34:47.032Z,14.00
2022-09-02T17:37:14.249Z,15.00
2022-09-02T17:39:41.622Z,15.23
2022-09-02T17:42:08.918Z,14.77
2022-09-02T17:44:38.413Z,14.38
2022-09-02T17:47:23.972Z,13.90
2022-09-02T17:49:51.799Z,15.82
2022-09-02T17:52:20.214Z,14.82
2022-09-02T17:54:49.571Z,13.40
2022-09-02T17:57:23.740Z,13.18
2022-09-02T17:59:51.255Z,13.07
2022-09-02T18:02:30.724Z,10.40
2022-09-02T18:05:18.277Z,13.82
2022-09-02T18:08:00.982Z,10.70
2022-09-02T18:10:57.190Z,12.10
2022-09-02T18:13:34.228Z,10.45
2022-09-02T18:16:22.138Z,9.75
2022-09-02T18:19:09.158Z,9.90
2022-09-02T18:21:43.360Z,10.90
2022-09-02T18:24:26.056Z,11.85
2022-09-02T18:26:56.651Z,11.32
2022-09-02T18:29:38.623Z,12.05
2022-09-02T18:32:17.026Z,12.35
2022-09-02T18:34:47.284Z,12.65
2022-09-02T18:37:17.404Z,11.40
2022-09-02T18:40:02.622Z,12.35
2022-09-02T18:42:42.245Z,12.82
2022-09-02T18:45:12.965Z,15.13
2022-09-02T18:47:53.546Z,15.57
2022-09-02T18:50:49.260Z,13.38
2022-09-02T18:53:20.895Z,14.15
2022-09-02T18:55:48.823Z,13.68
2022-09-02T18:58:34.881Z,13.88
2022-09-02T19:01:22.960Z,15.95
2022-09-02T19:03:50.688Z,15.50
2022-09-02T19:06:22.177Z,14.82
2022-09-02T19:08:51.664Z,15.23
2022-09-02T19:11:19.120Z,15.00
2022-09-02T19:13:48.036Z,15.75
2022-09-02T19:16:17.175Z,14.60
2022-09-02T19:18:44.714Z,14.20
2022-09-02T19:21:13.951Z,13.88
2022-09-02T19:23:42.557Z,13.70
2022-09-02T19:26:09.884Z,13.40
2022-09-02T19:28:37.429Z,12.43
2022-09-02T19:31:04.778Z,12.73
2022-09-02T19:33:33.073Z,11.30
2022-09-02T19:36:00.735Z,13.00
2022-09-02T19:38:28.368Z,10.27
2022-09-02T19:40:55.697Z,10.73
2022-09-02T19:43:23.533Z,10.90
2022-09-02T19:45:51.330Z,10.25
2022-09-02T19:48:19.398Z,10.88
2022-09-02T19:50:48.600Z,11.35
2022-09-02T19:53:30.019Z,10.98
2022-09-02T19:55:57.821Z,11.18
2022-09-02T19:58:25.910Z,12.30
2022-09-02T20:00:54.352Z,12.57
2022-09-02T20:03:21.802Z,12.93
2022-09-02T20:05:55.479Z,13.38
2022-09-02T20:08:28.788Z,12.85
2022-09-02T20:10:57.087Z,14.07
2022-09-02T20:13:24.924Z,15.35
2022-09-02T20:15:52.988Z,14.02
2022-09-02T20:18:24.435Z,15.13
2022-09-02T20:20:54.758Z,15.02
2022-09-02T20:23:22.508Z,15.35
2022-09-02T20:26:09.898Z,14.27
2022-09-02T20:28:45.672Z,16.25
2022-09-02T20:31:31.844Z,18.23
2022-09-02T20:34:28.734Z,17.90
2022-09-02T20:37:15.875Z,19.88
2022-09-02T20:39:58.335Z,19.42
2022-09-02T20:42:44.849Z,18.50
2022-09-02T20:45:24.605Z,19.77
2022-09-02T20:47:54.704Z,20.45
2022-09-02T20:50:21.893Z,19.60
2022-09-02T20:52:49.153Z,19.60
2022-09-02T20:55:23.692Z,20.05
2022-09-02T20:57:50.921Z,20.15
2022-09-02T21:00:20.608Z,19.48
2022-09-02T21:02:56.385Z,18.27
2022-09-02T21:05:26.160Z,20.63
2022-09-02T21:07:59.717Z,22.52
2022-09-02T21:10:31.293Z,22.77
2022-09-02T21:13:04.680Z,22.33
2022-09-02T21:15:33.385Z,22.08
2022-09-02T21:18:19.610Z,21.98
2022-09-02T21:20:50.474Z,22.60
2022-09-02T21:23:31.483Z,21.92
2022-09-02T21:26:01.292Z,21.40
2022-09-02T21:28:34.052Z,21.98
2022-09-02T21:33:30.548Z,21.30
2022-09-02T21:35:59.391Z,22.20
2022-09-02T21:38:29.770Z,23.15
2022-09-02T21:40:56.973Z,19.23
2022-09-02T21:43:27.525Z,15.68
2022-09-02T21:46:03.644Z,10.82
2022-09-02T21:48:49.321Z,9.82
2022-09-02T21:51:37.717Z,7.50
2022-09-02T21:54:05.041Z,10.07
2022-09-02T21:56:32.319Z,9.00
2022-09-02T21:59:14.265Z,10.32
2022-09-02T22:01:55.807Z,7.30
2022-09-02T22:04:41.777Z,7.50
2022-09-02T22:07:18.957Z,4.88
2022-09-02T22:10:11.206Z,4.30
2022-09-02T22:12:41.092Z,3.40
2022-09-02T22:15:15.491Z,2.97
2022-09-02T22:17:51.538Z,3.13
2022-09-02T22:20:21.706Z,3.00
2022-09-02T22:22:54.069Z,2.75
2022-09-02T22:25:22.956Z,2.90
2022-09-02T22:28:00.446Z,2.85
2022-09-02T22:30:28.734Z,2.63
2022-09-02T22:33:08.045Z,2.53
2022-09-02T22:35:41.454Z,2.95
2022-09-02T22:38:26.491Z,2.85
2022-09-02T22:41:12.335Z,2.22
2022-09-02T22:43:50.068Z,2.72
2022-09-02T22:46:56.064Z,2.28
2022-09-02T22:49:42.343Z,2.88
2022-09-02T22:52:31.389Z,3.08
2022-09-02T22:54:58.840Z,2.78
2022-09-02T22:57:32.028Z,3.05
2022-09-02T23:00:10.548Z,3.25
2022-09-02T23:02:56.693Z,3.70
2022-09-02T23:05:49.235Z,3.97
2022-09-02T23:08:20.333Z,3.53
2022-09-02T23:11:06.785Z,3.60
2022-09-02T23:13:48.539Z,5.05
2022-09-02T23:16:19.209Z,4.60
2022-09-02T23:18:52.107Z,5.78
2022-09-02T23:21:22.457Z,6.07
2022-09-02T23:23:54.666Z,5.80
2022-09-02T23:26:22.944Z,7.85
2022-09-02T23:28:52.259Z,11.95
2022-09-02T23:31:22.294Z,10.73
2022-09-02T23:33:53.980Z,12.23
2022-09-02T23:36:43.605Z,14.65
2022-09-02T23:39:18.973Z,15.55
2022-09-02T23:41:46.886Z,21.88
2022-09-02T23:44:14.366Z,21.67
2022-09-02T23:46:41.666Z,25.63
2022-09-02T23:49:29.494Z,24.02
2022-09-02T23:51:57.089Z,23.40
2022-09-02T23:54:53.602Z,22.67
2022-09-02T23:57:34.490Z,23.23
